sensor_id;sensor_type;location;lat;lon;timestamp;temperature;humidity
1702;DHT22;848;48.354;10.064;2023-05-16T00:01:33;9.40;99.90
1702;DHT22;848;48.354;10.064;2023-05-16T00:04:01;9.40;99.90
1702;DHT22;848;48.354;10.064;2023-05-16T00:06:36;9.40;99.90
1702;DHT22;848;48.354;10.064;2023-05-16T00:09:03;9.50;99.90
1702;DHT22;848;48.354;10.064;2023-05-16T00:11:30;9.50;99.90
1702;DHT22;848;48.354;10.064;2023-05-16T00:13:58;9.60;99.90
1702;DHT22;848;48.354;10.064;2023-05-16T00:16:26;9.60;99.90
1702;DHT22;848;48.354;10.064;2023-05-16T00:18:54;9.60;99.90
1702;DHT22;848;48.354;10.064;2023-05-16T00:21:22;9.60;99.90
1702;DHT22;848;48.354;10.064;2023-05-16T00:23:49;9.60;99.90
1702;DHT22;848;48.354;10.064;2023-05-16T00:26:17;9.70;99.90
1702;DHT22;848;48.354;10.064;2023-05-16T00:28:44;9.70;99.90
1702;DHT22;848;48.354;10.064;2023-05-16T00:31:12;9.70;99.90
1702;DHT22;848;48.354;10.064;2023-05-16T00:33:39;9.80;99.90
1702;DHT22;848;48.354;10.064;2023-05-16T00:36:06;9.80;99.90
1702;DHT22;848;48.354;10.064;2023-05-16T00:38:33;9.80;99.90
1702;DHT22;848;48.354;10.064;2023-05-16T00:41:01;9.90;99.90
1702;DHT22;848;48.354;10.064;2023-05-16T00:43:28;9.90;99.90
1702;DHT22;848;48.354;10.064;2023-05-16T00:45:55;9.90;99.90
1702;DHT22;848;48.354;10.064;2023-05-16T00:48:26;9.90;99.90
1702;DHT22;848;48.354;10.064;2023-05-16T00:50:53;9.90;99.90
1702;DHT22;848;48.354;10.064;2023-05-16T00:53:20;9.90;99.90
1702;DHT22;848;48.354;10.064;2023-05-16T00:55:47;10.00;99.90
1702;DHT22;848;48.354;10.064;2023-05-16T00:58:15;10.00;99.90
1702;DHT22;848;48.354;10.064;2023-05-16T01:00:42;9.90;99.90
1702;DHT22;848;48.354;10.064;2023-05-16T01:03:11;9.90;99.90
1702;DHT22;848;48.354;10.064;2023-05-16T01:05:39;9.80;99.90
1702;DHT22;848;48.354;10.064;2023-05-16T01:08:06;9.90;99.90
1702;DHT22;848;48.354;10.064;2023-05-16T01:10:38;9.90;99.90
1702;DHT22;848;48.354;10.064;2023-05-16T01:13:14;9.80;99.90
1702;DHT22;848;48.354;10.064;2023-05-16T01:15:47;9.80;99.90
1702;DHT22;848;48.354;10.064;2023-05-16T01:18:22;9.80;99.90
1702;DHT22;848;48.354;10.064;2023-05-16T01:20:55;9.80;99.90
1702;DHT22;848;48.354;10.064;2023-05-16T01:23:40;9.90;99.90
1702;DHT22;848;48.354;10.064;2023-05-16T01:26:15;9.80;99.90
1702;DHT22;848;48.354;10.064;2023-05-16T01:28:44;9.70;99.90
1702;DHT22;848;48.354;10.064;2023-05-16T01:31:12;9.60;99.90
1702;DHT22;848;48.354;10.064;2023-05-16T01:33:39;9.50;99.90
1702;DHT22;848;48.354;10.064;2023-05-16T01:36:12;9.40;99.90
1702;DHT22;848;48.354;10.064;2023-05-16T01:38:47;9.40;99.90
1702;DHT22;848;48.354;10.064;2023-05-16T01:41:27;9.40;99.90
1702;DHT22;848;48.354;10.064;2023-05-16T01:43:59;9.30;99.90
1702;DHT22;848;48.354;10.064;2023-05-16T01:46:30;9.30;99.90
1702;DHT22;848;48.354;10.064;2023-05-16T01:49:04;9.20;99.90
1702;DHT22;848;48.354;10.064;2023-05-16T01:51:39;9.10;99.90
1702;DHT22;848;48.354;10.064;2023-05-16T01:54:11;9.10;99.90
1702;DHT22;848;48.354;10.064;2023-05-16T01:56:42;9.10;99.90
1702;DHT22;848;48.354;10.064;2023-05-16T01:59:12;9.00;99.90
1702;DHT22;848;48.354;10.064;2023-05-16T02:01:40;8.90;99.90
1702;DHT22;848;48.354;10.064;2023-05-16T02:04:07;8.90;99.90
1702;DHT22;848;48.354;10.064;2023-05-16T02:06:34;8.90;99.90
1702;DHT22;848;48.354;10.064;2023-05-16T02:09:01;8.90;99.90
1702;DHT22;848;48.354;10.064;2023-05-16T02:11:28;8.90;99.90
1702;DHT22;848;48.354;10.064;2023-05-16T02:13:56;8.80;99.90
1702;DHT22;848;48.354;10.064;2023-05-16T02:16:23;8.80;99.90
1702;DHT22;848;48.354;10.064;2023-05-16T02:18:50;8.80;99.90
1702;DHT22;848;48.354;10.064;2023-05-16T02:21:16;8.70;99.90
1702;DHT22;848;48.354;10.064;2023-05-16T02:23:43;8.70;99.90
1702;DHT22;848;48.354;10.064;2023-05-16T02:26:10;8.70;99.90
1702;DHT22;848;48.354;10.064;2023-05-16T02:28:37;8.70;99.90
1702;DHT22;848;48.354;10.064;2023-05-16T02:31:05;8.70;99.90
1702;DHT22;848;48.354;10.064;2023-05-16T02:33:32;8.70;99.90
1702;DHT22;848;48.354;10.064;2023-05-16T02:36:00;8.70;99.90
1702;DHT22;848;48.354;10.064;2023-05-16T02:38:26;8.70;99.90
1702;DHT22;848;48.354;10.064;2023-05-16T02:40:53;8.60;99.90
1702;DHT22;848;48.354;10.064;2023-05-16T02:43:20;8.50;99.90
1702;DHT22;848;48.354;10.064;2023-05-16T02:45:47;8.40;99.90
1702;DHT22;848;48.354;10.064;2023-05-16T02:48:15;8.40;99.90
1702;DHT22;848;48.354;10.064;2023-05-16T02:50:42;8.40;99.90
1702;DHT22;848;48.354;10.064;2023-05-16T02:53:09;8.80;99.90
1702;DHT22;848;48.354;10.064;2023-05-16T02:55:36;8.40;99.90
1702;DHT22;848;48.354;10.064;2023-05-16T02:58:03;8.50;99.90
1702;DHT22;848;48.354;10.064;2023-05-16T03:00:30;8.50;99.90
1702;DHT22;848;48.354;10.064;2023-05-16T03:02:56;8.50;99.90
1702;DHT22;848;48.354;10.064;2023-05-16T03:05:25;8.50;99.90
1702;DHT22;848;48.354;10.064;2023-05-16T03:07:52;8.50;99.90
1702;DHT22;848;48.354;10.064;2023-05-16T03:10:19;8.50;99.90
1702;DHT22;848;48.354;10.064;2023-05-16T03:12:45;8.50;99.90
1702;DHT22;848;48.354;10.064;2023-05-16T03:15:12;8.70;99.90
1702;DHT22;848;48.354;10.064;2023-05-16T03:17:39;8.80;99.90
1702;DHT22;848;48.354;10.064;2023-05-16T03:20:07;8.90;99.90
1702;DHT22;848;48.354;10.064;2023-05-16T03:22:37;9.00;99.90
1702;DHT22;848;48.354;10.064;2023-05-16T03:25:05;9.20;99.90
1702;DHT22;848;48.354;10.064;2023-05-16T03:27:32;9.20;99.90
1702;DHT22;848;48.354;10.064;2023-05-16T03:29:59;9.20;99.90
1702;DHT22;848;48.354;10.064;2023-05-16T03:32:26;9.20;99.90
1702;DHT22;848;48.354;10.064;2023-05-16T03:34:53;9.10;99.90
1702;DHT22;848;48.354;10.064;2023-05-16T03:37:20;9.00;99.90
1702;DHT22;848;48.354;10.064;2023-05-16T03:39:48;9.00;99.90
1702;DHT22;848;48.354;10.064;2023-05-16T03:42:15;9.00;99.90
1702;DHT22;848;48.354;10.064;2023-05-16T03:44:43;8.90;99.90
1702;DHT22;848;48.354;10.064;2023-05-16T03:47:10;8.90;99.90
1702;DHT22;848;48.354;10.064;2023-05-16T03:49:37;9.00;99.90
1702;DHT22;848;48.354;10.064;2023-05-16T03:52:04;9.00;99.90
1702;DHT22;848;48.354;10.064;2023-05-16T03:54:31;9.00;99.90
1702;DHT22;848;48.354;10.064;2023-05-16T03:56:59;9.10;99.90
1702;DHT22;848;48.354;10.064;2023-05-16T03:59:26;9.10;99.90
1702;DHT22;848;48.354;10.064;2023-05-16T04:01:53;9.10;99.90
1702;DHT22;848;48.354;10.064;2023-05-16T04:04:20;9.10;99.90
1702;DHT22;848;48.354;10.064;2023-05-16T04:06:47;9.10;99.90
1702;DHT22;848;48.354;10.064;2023-05-16T04:09:13;9.10;99.90
1702;DHT22;848;48.354;10.064;2023-05-16T04:11:40;9.20;99.90
1702;DHT22;848;48.354;10.064;2023-05-16T04:14:09;9.20;99.90
1702;DHT22;848;48.354;10.064;2023-05-16T04:16:36;9.20;99.90
1702;DHT22;848;48.354;10.064;2023-05-16T04:19:03;9.20;99.90
1702;DHT22;848;48.354;10.064;2023-05-16T04:21:29;9.20;99.90
1702;DHT22;848;48.354;10.064;2023-05-16T04:23:56;9.20;99.90
1702;DHT22;848;48.354;10.064;2023-05-16T04:26:23;9.20;99.90
1702;DHT22;848;48.354;10.064;2023-05-16T04:28:52;9.20;99.90
1702;DHT22;848;48.354;10.064;2023-05-16T04:31:22;9.30;99.90
1702;DHT22;848;48.354;10.064;2023-05-16T04:33:49;9.30;99.90
1702;DHT22;848;48.354;10.064;2023-05-16T04:36:15;9.40;99.90
1702;DHT22;848;48.354;10.064;2023-05-16T04:38:42;9.40;99.90
1702;DHT22;848;48.354;10.064;2023-05-16T04:41:11;9.40;99.90
1702;DHT22;848;48.354;10.064;2023-05-16T04:43:38;9.50;99.90
1702;DHT22;848;48.354;10.064;2023-05-16T04:46:06;9.50;99.90
1702;DHT22;848;48.354;10.064;2023-05-16T04:48:35;9.60;99.90
1702;DHT22;848;48.354;10.064;2023-05-16T04:51:03;9.50;99.90
1702;DHT22;848;48.354;10.064;2023-05-16T04:53:30;9.40;99.90
1702;DHT22;848;48.354;10.064;2023-05-16T04:55:57;9.30;99.90
1702;DHT22;848;48.354;10.064;2023-05-16T04:58:23;9.30;99.90
1702;DHT22;848;48.354;10.064;2023-05-16T05:00:51;9.30;99.90
1702;DHT22;848;48.354;10.064;2023-05-16T05:03:18;9.40;99.90
1702;DHT22;848;48.354;10.064;2023-05-16T05:05:46;9.50;99.90
1702;DHT22;848;48.354;10.064;2023-05-16T05:08:13;9.50;99.90
1702;DHT22;848;48.354;10.064;2023-05-16T05:10:41;9.50;99.90
1702;DHT22;848;48.354;10.064;2023-05-16T05:13:07;9.60;99.90
1702;DHT22;848;48.354;10.064;2023-05-16T05:15:34;9.60;99.90
1702;DHT22;848;48.354;10.064;2023-05-16T05:18:01;9.70;99.90
1702;DHT22;848;48.354;10.064;2023-05-16T05:20:28;9.70;99.90
1702;DHT22;848;48.354;10.064;2023-05-16T05:22:57;9.90;99.90
1702;DHT22;848;48.354;10.064;2023-05-16T05:25:24;9.90;99.90
1702;DHT22;848;48.354;10.064;2023-05-16T05:27:50;10.10;99.90
1702;DHT22;848;48.354;10.064;2023-05-16T05:30:17;10.10;99.90
1702;DHT22;848;48.354;10.064;2023-05-16T05:32:44;10.20;99.90
1702;DHT22;848;48.354;10.064;2023-05-16T05:35:11;10.20;99.90
1702;DHT22;848;48.354;10.064;2023-05-16T05:37:38;10.20;99.90
1702;DHT22;848;48.354;10.064;2023-05-16T05:40:07;10.30;99.90
1702;DHT22;848;48.354;10.064;2023-05-16T05:42:34;10.30;99.90
1702;DHT22;848;48.354;10.064;2023-05-16T05:45:01;10.40;99.90
1702;DHT22;848;48.354;10.064;2023-05-16T05:47:28;10.50;99.90
1702;DHT22;848;48.354;10.064;2023-05-16T05:49:55;10.60;99.90
1702;DHT22;848;48.354;10.064;2023-05-16T05:52:22;10.70;99.90
1702;DHT22;848;48.354;10.064;2023-05-16T05:54:49;10.80;99.90
1702;DHT22;848;48.354;10.064;2023-05-16T05:57:17;10.90;99.90
1702;DHT22;848;48.354;10.064;2023-05-16T05:59:45;10.90;99.90
1702;DHT22;848;48.354;10.064;2023-05-16T06:02:12;11.00;99.90
1702;DHT22;848;48.354;10.064;2023-05-16T06:04:39;11.10;99.90
1702;DHT22;848;48.354;10.064;2023-05-16T06:07:07;11.10;99.90
1702;DHT22;848;48.354;10.064;2023-05-16T06:09:34;11.20;99.90
1702;DHT22;848;48.354;10.064;2023-05-16T06:12:01;11.20;99.90
1702;DHT22;848;48.354;10.064;2023-05-16T06:14:30;11.30;99.90
1702;DHT22;848;48.354;10.064;2023-05-16T06:16:56;11.30;99.90
1702;DHT22;848;48.354;10.064;2023-05-16T06:19:23;11.40;99.90
1702;DHT22;848;48.354;10.064;2023-05-16T06:21:50;11.40;99.90
1702;DHT22;848;48.354;10.064;2023-05-16T06:24:17;11.40;99.90
1702;DHT22;848;48.354;10.064;2023-05-16T06:26:44;11.50;99.90
1702;DHT22;848;48.354;10.064;2023-05-16T06:29:14;11.50;99.90
1702;DHT22;848;48.354;10.064;2023-05-16T06:31:44;11.50;99.90
1702;DHT22;848;48.354;10.064;2023-05-16T06:34:11;11.50;99.90
1702;DHT22;848;48.354;10.064;2023-05-16T06:36:38;11.60;99.90
1702;DHT22;848;48.354;10.064;2023-05-16T06:39:05;11.50;99.90
1702;DHT22;848;48.354;10.064;2023-05-16T06:41:32;11.60;99.90
1702;DHT22;848;48.354;10.064;2023-05-16T06:43:59;11.70;99.90
1702;DHT22;848;48.354;10.064;2023-05-16T06:46:26;11.70;99.90
1702;DHT22;848;48.354;10.064;2023-05-16T06:48:54;11.70;99.90
1702;DHT22;848;48.354;10.064;2023-05-16T06:51:21;11.70;99.90
1702;DHT22;848;48.354;10.064;2023-05-16T06:53:48;11.70;99.90
1702;DHT22;848;48.354;10.064;2023-05-16T06:56:15;11.70;99.90
1702;DHT22;848;48.354;10.064;2023-05-16T06:58:42;11.80;99.90
1702;DHT22;848;48.354;10.064;2023-05-16T07:01:09;11.80;99.90
1702;DHT22;848;48.354;10.064;2023-05-16T07:03:36;11.80;99.90
1702;DHT22;848;48.354;10.064;2023-05-16T07:06:04;12.00;99.90
1702;DHT22;848;48.354;10.064;2023-05-16T07:08:31;12.00;99.90
1702;DHT22;848;48.354;10.064;2023-05-16T07:11:00;12.10;99.90
1702;DHT22;848;48.354;10.064;2023-05-16T07:13:27;12.20;99.90
1702;DHT22;848;48.354;10.064;2023-05-16T07:15:54;12.30;99.90
1702;DHT22;848;48.354;10.064;2023-05-16T07:18:21;12.30;99.90
1702;DHT22;848;48.354;10.064;2023-05-16T07:20:48;12.40;99.90
1702;DHT22;848;48.354;10.064;2023-05-16T07:23:16;12.40;99.90
1702;DHT22;848;48.354;10.064;2023-05-16T07:25:43;12.50;99.90
1702;DHT22;848;48.354;10.064;2023-05-16T07:28:10;12.50;99.90
1702;DHT22;848;48.354;10.064;2023-05-16T07:30:37;12.50;99.90
1702;DHT22;848;48.354;10.064;2023-05-16T07:33:04;12.50;99.90
1702;DHT22;848;48.354;10.064;2023-05-16T07:35:31;12.50;99.90
1702;DHT22;848;48.354;10.064;2023-05-16T07:37:58;12.60;99.90
1702;DHT22;848;48.354;10.064;2023-05-16T07:40:26;12.60;99.90
1702;DHT22;848;48.354;10.064;2023-05-16T07:42:54;12.80;99.90
1702;DHT22;848;48.354;10.064;2023-05-16T07:45:20;12.90;99.90
1702;DHT22;848;48.354;10.064;2023-05-16T07:47:47;13.10;99.90
1702;DHT22;848;48.354;10.064;2023-05-16T07:50:14;13.20;99.90
1702;DHT22;848;48.354;10.064;2023-05-16T07:52:41;13.30;99.90
1702;DHT22;848;48.354;10.064;2023-05-16T07:55:09;13.60;99.90
1702;DHT22;848;48.354;10.064;2023-05-16T07:57:37;13.80;99.90
1702;DHT22;848;48.354;10.064;2023-05-16T08:00:05;14.20;99.90
1702;DHT22;848;48.354;10.064;2023-05-16T08:02:33;14.30;99.90
1702;DHT22;848;48.354;10.064;2023-05-16T08:05:00;14.20;99.90
1702;DHT22;848;48.354;10.064;2023-05-16T08:07:26;14.20;99.90
1702;DHT22;848;48.354;10.064;2023-05-16T08:09:53;14.10;99.90
1702;DHT22;848;48.354;10.064;2023-05-16T08:12:20;14.00;99.90
1702;DHT22;848;48.354;10.064;2023-05-16T08:14:48;13.90;99.90
1702;DHT22;848;48.354;10.064;2023-05-16T08:17:15;13.80;99.90
1702;DHT22;848;48.354;10.064;2023-05-16T08:19:42;13.80;99.90
1702;DHT22;848;48.354;10.064;2023-05-16T08:22:09;13.70;99.90
1702;DHT22;848;48.354;10.064;2023-05-16T08:24:36;13.70;99.90
1702;DHT22;848;48.354;10.064;2023-05-16T08:27:03;13.70;99.90
1702;DHT22;848;48.354;10.064;2023-05-16T08:29:30;13.70;99.90
1702;DHT22;848;48.354;10.064;2023-05-16T08:31:58;13.70;99.90
1702;DHT22;848;48.354;10.064;2023-05-16T08:34:25;13.70;99.90
1702;DHT22;848;48.354;10.064;2023-05-16T08:36:52;13.70;99.90
1702;DHT22;848;48.354;10.064;2023-05-16T08:39:20;13.70;99.90
1702;DHT22;848;48.354;10.064;2023-05-16T08:41:47;13.70;99.90
1702;DHT22;848;48.354;10.064;2023-05-16T08:44:14;13.70;99.90
1702;DHT22;848;48.354;10.064;2023-05-16T08:46:50;13.80;99.90
1702;DHT22;848;48.354;10.064;2023-05-16T08:49:19;13.80;99.90
1702;DHT22;848;48.354;10.064;2023-05-16T08:51:47;13.70;99.90
1702;DHT22;848;48.354;10.064;2023-05-16T08:54:17;13.80;99.90
1702;DHT22;848;48.354;10.064;2023-05-16T08:56:44;13.70;99.90
1702;DHT22;848;48.354;10.064;2023-05-16T08:59:12;13.70;99.90
1702;DHT22;848;48.354;10.064;2023-05-16T09:01:40;13.40;99.90
1702;DHT22;848;48.354;10.064;2023-05-16T09:04:08;13.20;99.90
1702;DHT22;848;48.354;10.064;2023-05-16T09:06:36;13.00;99.90
1702;DHT22;848;48.354;10.064;2023-05-16T09:09:04;13.00;99.90
1702;DHT22;848;48.354;10.064;2023-05-16T09:11:32;12.90;99.90
1702;DHT22;848;48.354;10.064;2023-05-16T09:14:00;12.80;99.90
1702;DHT22;848;48.354;10.064;2023-05-16T09:16:30;12.80;99.90
1702;DHT22;848;48.354;10.064;2023-05-16T09:18:58;12.80;99.90
1702;DHT22;848;48.354;10.064;2023-05-16T09:21:27;12.80;99.90
1702;DHT22;848;48.354;10.064;2023-05-16T09:24:01;12.90;99.90
1702;DHT22;848;48.354;10.064;2023-05-16T09:26:29;12.90;99.90
1702;DHT22;848;48.354;10.064;2023-05-16T09:28:57;12.80;99.90
1702;DHT22;848;48.354;10.064;2023-05-16T09:31:25;12.90;99.90
1702;DHT22;848;48.354;10.064;2023-05-16T09:33:52;12.90;99.90
1702;DHT22;848;48.354;10.064;2023-05-16T09:36:19;13.00;99.90
1702;DHT22;848;48.354;10.064;2023-05-16T09:38:46;13.00;99.90
1702;DHT22;848;48.354;10.064;2023-05-16T09:41:14;13.10;99.90
1702;DHT22;848;48.354;10.064;2023-05-16T09:43:42;13.10;99.90
1702;DHT22;848;48.354;10.064;2023-05-16T09:46:12;13.10;99.90
1702;DHT22;848;48.354;10.064;2023-05-16T09:48:40;13.00;99.90
1702;DHT22;848;48.354;10.064;2023-05-16T09:51:07;13.00;99.90
1702;DHT22;848;48.354;10.064;2023-05-16T09:53:34;13.00;99.90
1702;DHT22;848;48.354;10.064;2023-05-16T09:56:05;12.90;99.90
1702;DHT22;848;48.354;10.064;2023-05-16T09:58:35;12.90;99.90
1702;DHT22;848;48.354;10.064;2023-05-16T10:01:02;13.00;99.90
1702;DHT22;848;48.354;10.064;2023-05-16T10:03:30;13.10;99.90
1702;DHT22;848;48.354;10.064;2023-05-16T10:05:57;13.10;99.90
1702;DHT22;848;48.354;10.064;2023-05-16T10:08:25;13.10;99.90
1702;DHT22;848;48.354;10.064;2023-05-16T10:10:54;13.20;99.90
1702;DHT22;848;48.354;10.064;2023-05-16T10:13:23;13.10;99.90
1702;DHT22;848;48.354;10.064;2023-05-16T10:15:54;13.10;99.90
1702;DHT22;848;48.354;10.064;2023-05-16T10:18:24;13.20;99.90
1702;DHT22;848;48.354;10.064;2023-05-16T10:20:56;13.00;99.90
1702;DHT22;848;48.354;10.064;2023-05-16T10:23:25;12.90;99.90
1702;DHT22;848;48.354;10.064;2023-05-16T10:25:54;12.80;99.90
1702;DHT22;848;48.354;10.064;2023-05-16T10:28:24;12.70;99.90
1702;DHT22;848;48.354;10.064;2023-05-16T10:30:53;12.70;99.90
1702;DHT22;848;48.354;10.064;2023-05-16T10:33:21;12.50;99.90
1702;DHT22;848;48.354;10.064;2023-05-16T10:35:48;12.60;99.90
1702;DHT22;848;48.354;10.064;2023-05-16T10:38:17;12.60;99.90
1702;DHT22;848;48.354;10.064;2023-05-16T10:40:46;12.60;99.90
1702;DHT22;848;48.354;10.064;2023-05-16T10:43:23;12.60;99.90
1702;DHT22;848;48.354;10.064;2023-05-16T10:45:56;12.60;99.90
1702;DHT22;848;48.354;10.064;2023-05-16T10:48:29;12.60;99.90
1702;DHT22;848;48.354;10.064;2023-05-16T10:50:57;12.60;99.90
1702;DHT22;848;48.354;10.064;2023-05-16T10:53:30;12.50;99.90
1702;DHT22;848;48.354;10.064;2023-05-16T10:56:06;12.50;99.90
1702;DHT22;848;48.354;10.064;2023-05-16T10:58:41;12.50;99.90
1702;DHT22;848;48.354;10.064;2023-05-16T11:01:20;12.50;99.90
1702;DHT22;848;48.354;10.064;2023-05-16T11:04:07;12.60;99.90
1702;DHT22;848;48.354;10.064;2023-05-16T11:06:44;12.70;99.90
1702;DHT22;848;48.354;10.064;2023-05-16T11:09:19;12.80;99.90
1702;DHT22;848;48.354;10.064;2023-05-16T11:11:52;12.80;99.90
1702;DHT22;848;48.354;10.064;2023-05-16T11:14:22;12.90;99.90
1702;DHT22;848;48.354;10.064;2023-05-16T11:16:52;13.10;99.90
1702;DHT22;848;48.354;10.064;2023-05-16T11:19:30;13.20;99.90
1702;DHT22;848;48.354;10.064;2023-05-16T11:22:07;13.30;99.90
1702;DHT22;848;48.354;10.064;2023-05-16T11:24:34;13.30;99.90
1702;DHT22;848;48.354;10.064;2023-05-16T11:27:03;13.20;99.90
1702;DHT22;848;48.354;10.064;2023-05-16T11:29:30;13.30;99.90
1702;DHT22;848;48.354;10.064;2023-05-16T11:32:00;13.40;99.90
1702;DHT22;848;48.354;10.064;2023-05-16T11:34:27;13.50;99.90
1702;DHT22;848;48.354;10.064;2023-05-16T11:36:55;13.40;99.90
1702;DHT22;848;48.354;10.064;2023-05-16T11:39:22;13.40;99.90
1702;DHT22;848;48.354;10.064;2023-05-16T11:41:50;13.40;99.90
1702;DHT22;848;48.354;10.064;2023-05-16T11:44:17;13.30;99.90
1702;DHT22;848;48.354;10.064;2023-05-16T11:46:44;13.20;99.90
1702;DHT22;848;48.354;10.064;2023-05-16T11:49:13;13.20;99.90
1702;DHT22;848;48.354;10.064;2023-05-16T11:51:40;13.20;99.90
1702;DHT22;848;48.354;10.064;2023-05-16T11:54:08;13.10;99.90
1702;DHT22;848;48.354;10.064;2023-05-16T11:56:36;13.00;99.90
1702;DHT22;848;48.354;10.064;2023-05-16T11:59:03;13.00;99.90
1702;DHT22;848;48.354;10.064;2023-05-16T12:01:33;12.90;99.90
1702;DHT22;848;48.354;10.064;2023-05-16T12:04:01;12.90;99.90
1702;DHT22;848;48.354;10.064;2023-05-16T12:06:34;12.90;99.90
1702;DHT22;848;48.354;10.064;2023-05-16T12:09:02;13.00;99.90
1702;DHT22;848;48.354;10.064;2023-05-16T12:11:36;12.80;99.90
1702;DHT22;848;48.354;10.064;2023-05-16T12:14:03;12.80;99.90
1702;DHT22;848;48.354;10.064;2023-05-16T12:16:31;12.80;99.90
1702;DHT22;848;48.354;10.064;2023-05-16T12:18:58;12.90;99.90
1702;DHT22;848;48.354;10.064;2023-05-16T12:21:26;13.00;99.90
1702;DHT22;848;48.354;10.064;2023-05-16T12:23:56;13.00;99.90
1702;DHT22;848;48.354;10.064;2023-05-16T12:26:24;13.00;99.90
1702;DHT22;848;48.354;10.064;2023-05-16T12:28:53;13.00;99.90
1702;DHT22;848;48.354;10.064;2023-05-16T12:31:21;13.10;99.90
1702;DHT22;848;48.354;10.064;2023-05-16T12:33:52;13.10;99.90
1702;DHT22;848;48.354;10.064;2023-05-16T12:36:19;13.10;99.90
1702;DHT22;848;48.354;10.064;2023-05-16T12:38:46;13.20;99.90
1702;DHT22;848;48.354;10.064;2023-05-16T12:41:18;13.20;99.90
1702;DHT22;848;48.354;10.064;2023-05-16T12:43:46;13.20;99.90
1702;DHT22;848;48.354;10.064;2023-05-16T12:46:13;13.20;99.90
1702;DHT22;848;48.354;10.064;2023-05-16T12:48:40;13.20;99.90
1702;DHT22;848;48.354;10.064;2023-05-16T12:51:10;13.20;99.90
1702;DHT22;848;48.354;10.064;2023-05-16T12:53:42;13.30;99.90
1702;DHT22;848;48.354;10.064;2023-05-16T12:56:10;13.40;99.90
1702;DHT22;848;48.354;10.064;2023-05-16T12:58:38;13.30;99.90
1702;DHT22;848;48.354;10.064;2023-05-16T13:01:05;13.40;99.90
1702;DHT22;848;48.354;10.064;2023-05-16T13:03:33;13.40;99.90
1702;DHT22;848;48.354;10.064;2023-05-16T13:06:01;13.50;99.90
1702;DHT22;848;48.354;10.064;2023-05-16T13:08:30;13.60;99.90
1702;DHT22;848;48.354;10.064;2023-05-16T13:10:57;13.80;99.90
1702;DHT22;848;48.354;10.064;2023-05-16T13:13:24;14.00;99.90
1702;DHT22;848;48.354;10.064;2023-05-16T13:15:52;14.10;99.90
1702;DHT22;848;48.354;10.064;2023-05-16T13:18:19;14.20;99.90
1702;DHT22;848;48.354;10.064;2023-05-16T13:20:46;14.20;99.90
1702;DHT22;848;48.354;10.064;2023-05-16T13:23:13;14.20;99.90
1702;DHT22;848;48.354;10.064;2023-05-16T13:25:40;13.90;99.90
1702;DHT22;848;48.354;10.064;2023-05-16T13:28:07;13.90;99.90
1702;DHT22;848;48.354;10.064;2023-05-16T13:30:35;13.90;99.90
1702;DHT22;848;48.354;10.064;2023-05-16T13:33:04;14.00;99.90
1702;DHT22;848;48.354;10.064;2023-05-16T13:35:31;14.10;99.90
1702;DHT22;848;48.354;10.064;2023-05-16T13:37:57;14.20;99.90
1702;DHT22;848;48.354;10.064;2023-05-16T13:40:25;14.00;99.90
1702;DHT22;848;48.354;10.064;2023-05-16T13:42:52;13.90;99.90
1702;DHT22;848;48.354;10.064;2023-05-16T13:45:19;13.90;99.90
1702;DHT22;848;48.354;10.064;2023-05-16T13:47:46;14.00;99.90
1702;DHT22;848;48.354;10.064;2023-05-16T13:50:14;14.00;99.90
1702;DHT22;848;48.354;10.064;2023-05-16T13:52:41;14.20;99.90
1702;DHT22;848;48.354;10.064;2023-05-16T13:55:08;14.20;99.90
1702;DHT22;848;48.354;10.064;2023-05-16T13:57:35;14.00;99.90
1702;DHT22;848;48.354;10.064;2023-05-16T14:00:03;13.90;99.90
1702;DHT22;848;48.354;10.064;2023-05-16T14:02:37;13.90;99.90
1702;DHT22;848;48.354;10.064;2023-05-16T14:05:04;13.90;99.90
1702;DHT22;848;48.354;10.064;2023-05-16T14:07:32;13.80;99.90
1702;DHT22;848;48.354;10.064;2023-05-16T14:09:59;13.90;99.90
1702;DHT22;848;48.354;10.064;2023-05-16T14:12:26;13.90;99.90
1702;DHT22;848;48.354;10.064;2023-05-16T14:14:53;13.80;99.90
1702;DHT22;848;48.354;10.064;2023-05-16T14:17:20;13.80;99.90
1702;DHT22;848;48.354;10.064;2023-05-16T14:19:47;13.80;99.90
1702;DHT22;848;48.354;10.064;2023-05-16T14:22:14;13.90;99.90
1702;DHT22;848;48.354;10.064;2023-05-16T14:24:42;13.90;99.90
1702;DHT22;848;48.354;10.064;2023-05-16T14:27:09;13.70;99.90
1702;DHT22;848;48.354;10.064;2023-05-16T14:29:36;13.80;99.90
1702;DHT22;848;48.354;10.064;2023-05-16T14:32:03;13.80;99.90
1702;DHT22;848;48.354;10.064;2023-05-16T14:34:30;13.90;99.90
1702;DHT22;848;48.354;10.064;2023-05-16T14:36:57;14.00;99.90
1702;DHT22;848;48.354;10.064;2023-05-16T14:39:24;14.10;99.90
1702;DHT22;848;48.354;10.064;2023-05-16T14:41:53;14.00;99.90
1702;DHT22;848;48.354;10.064;2023-05-16T14:44:20;13.90;99.90
1702;DHT22;848;48.354;10.064;2023-05-16T14:46:49;13.90;99.90
1702;DHT22;848;48.354;10.064;2023-05-16T14:49:16;14.00;99.90
1702;DHT22;848;48.354;10.064;2023-05-16T14:51:43;14.00;99.90
1702;DHT22;848;48.354;10.064;2023-05-16T14:54:13;14.10;99.90
1702;DHT22;848;48.354;10.064;2023-05-16T14:56:40;14.10;99.90
1702;DHT22;848;48.354;10.064;2023-05-16T14:59:09;14.10;99.90
1702;DHT22;848;48.354;10.064;2023-05-16T15:01:36;14.10;99.90
1702;DHT22;848;48.354;10.064;2023-05-16T15:04:03;13.80;99.90
1702;DHT22;848;48.354;10.064;2023-05-16T15:06:30;13.70;99.90
1702;DHT22;848;48.354;10.064;2023-05-16T15:08:57;13.70;99.90
1702;DHT22;848;48.354;10.064;2023-05-16T15:11:24;13.60;99.90
1702;DHT22;848;48.354;10.064;2023-05-16T15:13:51;13.50;99.90
1702;DHT22;848;48.354;10.064;2023-05-16T15:16:19;13.60;99.90
1702;DHT22;848;48.354;10.064;2023-05-16T15:18:47;13.50;99.90
1702;DHT22;848;48.354;10.064;2023-05-16T15:21:14;13.40;99.90
1702;DHT22;848;48.354;10.064;2023-05-16T15:23:41;13.40;99.90
1702;DHT22;848;48.354;10.064;2023-05-16T15:26:08;13.60;99.90
1702;DHT22;848;48.354;10.064;2023-05-16T15:28:35;13.60;99.90
1702;DHT22;848;48.354;10.064;2023-05-16T15:31:02;13.50;99.90
1702;DHT22;848;48.354;10.064;2023-05-16T15:33:31;13.40;99.90
1702;DHT22;848;48.354;10.064;2023-05-16T15:35:58;13.40;99.90
1702;DHT22;848;48.354;10.064;2023-05-16T15:38:25;13.40;99.90
1702;DHT22;848;48.354;10.064;2023-05-16T15:40:52;13.20;99.90
1702;DHT22;848;48.354;10.064;2023-05-16T15:43:18;13.20;99.90
1702;DHT22;848;48.354;10.064;2023-05-16T15:45:45;13.20;99.90
1702;DHT22;848;48.354;10.064;2023-05-16T15:48:12;13.10;99.90
1702;DHT22;848;48.354;10.064;2023-05-16T15:50:40;13.00;99.90
1702;DHT22;848;48.354;10.064;2023-05-16T15:53:08;12.90;99.90
1702;DHT22;848;48.354;10.064;2023-05-16T15:55:35;12.90;99.90
1702;DHT22;848;48.354;10.064;2023-05-16T15:58:01;12.90;99.90
1702;DHT22;848;48.354;10.064;2023-05-16T16:00:30;13.00;99.90
1702;DHT22;848;48.354;10.064;2023-05-16T16:02:56;12.90;99.90
1702;DHT22;848;48.354;10.064;2023-05-16T16:05:23;12.80;99.90
1702;DHT22;848;48.354;10.064;2023-05-16T16:07:52;12.70;99.90
1702;DHT22;848;48.354;10.064;2023-05-16T16:10:18;12.50;99.90
1702;DHT22;848;48.354;10.064;2023-05-16T16:12:57;12.40;99.90